• Join FlightAware (Why Join?)
  • Login
  • US Flag 
Rudolph Flight #1: Arrived! 
04:51AM EST


 

Airport Tracker/Info


-or-


 

Live Flight TrackerFlight Track Log ✈ N498QS ✈ 19-May-2013 ✈ KSCK - KSJC

Flight Track Log - Related Links

Times and Time Zones

All times are in EDT time to prevent confusion due to time zone crossing. See the N498QS flight status page for this flight to view local times or setup timezone preferences in your user account.

Time Position Orientation Groundspeed Altitude Reporting Facility
EDT Latitude Longitude Course Direction KTS MPH feet Rate Location/Type
03:35PM 37.8667 -121.3000 232° Southwest 247 284 4,500  Level Northern Cal TRACON
03:36PM 37.8167 -121.3500 218° Southwest 281 323 7,000 1,200 Climbing Northern Cal TRACON
03:37PM 37.7333 -121.3833 198° South 294 338 7,000  Level Northern Cal TRACON
03:38PM 37.6667 -121.4333 211° Southwest 294 338 7,000  Level Northern Cal TRACON
03:39PM 37.5833 -121.4667 198° South 301 346 7,000  Level Northern Cal TRACON
03:40PM 37.5000 -121.5000 198° South 293 337 7,000  Level Northern Cal TRACON
03:41PM 37.5743 -121.0190 232° Southwest  Level FlightAware Approximate
03:41PM 37.4333 -121.5167 191° South 300 345 7,000  Level Northern Cal TRACON
03:43PM 37.3333 -121.5167 180° South 295 339 7,000  Level Northern Cal TRACON
03:43PM 37.3114 -121.5053 158° South 292 336 7,000  Level Oakland Center
03:44PM 37.2469 -121.5431 205° Southwest 281 323 7,000 -540 Level Oakland Center
03:45PM 37.2033 -121.6086 230° Southwest 249 287 6,000 -1,020 Descending Oakland Center
03:46PM 37.1611 -121.6769 232° Southwest 245 282 5,000 -600 Descending Oakland Center
03:47PM 37.1858 -121.7339 299° West 211 243 4,800 -600 Descending Oakland Center
03:48PM 37.2167 -121.7772 312° West 183 211 3,800 -1,140 Descending Oakland Center
03:49PM 37.2531 -121.8142 321° Northwest 172 198 2,500 -900 Descending Oakland Center
03:50PM 37.2811 -121.8444 319° Northwest 153 176 2,000 -660 Descending Oakland Center
03:51PM 37.3097 -121.8739 321° Northwest 140 161 1,200 -720 Descending Oakland Center
03:52PM 37.3375 -121.9039 319° Northwest 134 154 600 -540 Descending Oakland Center
03:53PM 37.3631 -121.9317 319° Northwest 109 125 100 -540 Descending Oakland Center
03:55PM 37.3627 -121.9291 North  Level Estimated